createdAt,value
2019-03-24T00:03:40.465Z,2.90
2019-03-24T00:08:36.441Z,4.30
2019-03-24T00:13:32.352Z,3.00
2019-03-24T00:18:28.267Z,3.90
2019-03-24T00:23:24.274Z,3.47
2019-03-24T00:28:20.194Z,3.33
2019-03-24T00:33:16.107Z,4.80
2019-03-24T00:38:12.025Z,4.20
2019-03-24T00:43:07.973Z,4.27
2019-03-24T00:48:03.917Z,4.70
2019-03-24T00:52:59.832Z,4.43
2019-03-24T00:57:55.776Z,4.40
2019-03-24T01:02:51.691Z,4.00
2019-03-24T01:07:47.607Z,4.30
2019-03-24T01:12:43.524Z,6.07
2019-03-24T01:17:39.471Z,4.80
2019-03-24T01:22:35.379Z,4.40
2019-03-24T01:27:31.316Z,8.20
2019-03-24T01:32:27.234Z,4.50
2019-03-24T01:37:23.147Z,4.47
2019-03-24T01:42:19.071Z,5.33
2019-03-24T01:47:14.982Z,5.60
2019-03-24T01:52:10.907Z,5.70
2019-03-24T01:57:06.860Z,5.80
2019-03-24T02:02:02.942Z,5.73
2019-03-24T02:06:58.870Z,5.00
2019-03-24T02:11:54.786Z,5.87
2019-03-24T02:16:50.805Z,6.80
2019-03-24T02:21:46.718Z,6.00
2019-03-24T02:26:44.373Z,4.63
2019-03-24T02:31:40.402Z,6.80
2019-03-24T02:36:36.318Z,6.13
2019-03-24T02:41:32.231Z,8.03
2019-03-24T02:46:28.203Z,8.90
2019-03-24T02:51:24.156Z,8.10
2019-03-24T02:56:20.098Z,7.73
2019-03-24T03:01:16.026Z,7.33
2019-03-24T03:06:12.040Z,7.00
2019-03-24T03:11:07.957Z,7.70
2019-03-24T03:16:03.983Z,7.70
2019-03-24T03:20:59.901Z,7.80
2019-03-24T03:25:55.888Z,7.23
2019-03-24T03:30:51.810Z,10.20
2019-03-24T03:35:47.758Z,8.87
2019-03-24T03:40:43.730Z,9.87
2019-03-24T03:45:39.683Z,7.53
2019-03-24T03:50:35.687Z,7.60
2019-03-24T03:55:31.608Z,9.00
2019-03-24T04:00:32.052Z,10.20
2019-03-24T04:05:27.955Z,8.43
2019-03-24T04:10:23.953Z,9.33
2019-03-24T04:15:20.004Z,7.70
2019-03-24T04:20:15.921Z,8.57
2019-03-24T04:25:11.974Z,8.30
2019-03-24T04:30:09.388Z,8.60
2019-03-24T04:35:06.312Z,9.03
2019-03-24T04:40:04.232Z,7.50
2019-03-24T04:45:00.333Z,7.23
2019-03-24T04:49:56.249Z,7.73
2019-03-24T04:54:52.232Z,7.77
2019-03-24T04:59:48.175Z,6.70
2019-03-24T05:04:44.095Z,7.40
2019-03-24T05:09:40.119Z,7.93
2019-03-24T05:14:36.041Z,7.33
2019-03-24T05:19:31.987Z,7.70
2019-03-24T05:24:31.612Z,7.93
2019-03-24T05:29:27.501Z,7.13
2019-03-24T05:34:23.467Z,7.43
2019-03-24T05:39:19.447Z,7.80
2019-03-24T05:44:15.365Z,5.93
2019-03-24T05:49:11.339Z,6.93
2019-03-24T05:54:12.880Z,8.30
2019-03-24T05:59:08.807Z,8.47
2019-03-24T06:04:04.821Z,6.60
2019-03-24T06:09:00.844Z,9.53
2019-03-24T06:13:56.856Z,7.73
2019-03-24T06:18:52.780Z,6.93
2019-03-24T06:23:50.725Z,6.63
2019-03-24T06:28:46.751Z,10.10
2019-03-24T06:33:42.667Z,7.63
2019-03-24T06:38:38.702Z,7.30
2019-03-24T06:43:34.721Z,8.83
2019-03-24T06:48:30.664Z,7.70
2019-03-24T06:53:26.587Z,7.67
2019-03-24T06:58:22.551Z,7.77
2019-03-24T07:03:18.490Z,7.40
2019-03-24T07:08:15.365Z,6.10
2019-03-24T07:13:11.278Z,7.80
2019-03-24T07:18:08.761Z,7.80
2019-03-24T07:23:05.002Z,8.23
2019-03-24T07:28:00.957Z,8.30
2019-03-24T07:32:56.984Z,8.40
2019-03-24T07:37:52.903Z,8.30
2019-03-24T07:42:48.831Z,8.17
2019-03-24T07:47:44.803Z,6.50
2019-03-24T07:52:40.745Z,7.67
2019-03-24T07:57:36.667Z,8.50
2019-03-24T08:02:32.605Z,8.17
2019-03-24T08:07:28.519Z,9.63
2019-03-24T08:12:24.436Z,7.40
2019-03-24T08:17:20.454Z,7.90
2019-03-24T08:22:16.373Z,7.73
2019-03-24T08:27:12.519Z,6.73
2019-03-24T08:32:08.452Z,7.33
2019-03-24T08:37:04.794Z,7.00
2019-03-24T08:42:00.808Z,8.23
2019-03-24T08:46:56.828Z,7.30
2019-03-24T08:51:52.755Z,7.83
2019-03-24T08:56:48.690Z,4.80
2019-03-24T09:01:44.584Z,8.90
2019-03-24T09:06:41.064Z,8.53
2019-03-24T09:11:36.959Z,8.20
2019-03-24T09:16:33.636Z,7.50
2019-03-24T09:21:29.798Z,8.00
2019-03-24T09:26:25.821Z,8.20
2019-03-24T09:31:21.744Z,8.93
2019-03-24T09:36:17.665Z,6.67
2019-03-24T09:41:13.597Z,8.30
2019-03-24T09:46:09.660Z,7.47
2019-03-24T09:51:05.561Z,7.90
2019-03-24T09:56:02.181Z,5.07
2019-03-24T10:00:58.239Z,4.97
2019-03-24T10:05:54.265Z,4.07
2019-03-24T10:10:50.184Z,2.93
2019-03-24T10:15:46.296Z,4.80
2019-03-24T10:20:42.229Z,4.23
2019-03-24T10:25:38.206Z,4.47
2019-03-24T10:30:34.126Z,4.40
2019-03-24T10:35:30.086Z,3.73
2019-03-24T10:40:28.926Z,3.10
2019-03-24T10:45:23.833Z,3.73
2019-03-24T10:50:19.843Z,3.10
2019-03-24T10:55:17.011Z,3.00
2019-03-24T11:00:15.411Z,3.00
2019-03-24T11:05:11.455Z,3.03
2019-03-24T11:10:07.977Z,3.37
2019-03-24T11:15:08.674Z,3.00
2019-03-24T11:20:06.414Z,3.67
2019-03-24T11:25:06.024Z,3.50
2019-03-24T11:30:02.808Z,3.43
2019-03-24T11:34:58.720Z,3.37
2019-03-24T11:39:54.640Z,1.90
2019-03-24T11:44:50.558Z,2.30
2019-03-24T11:49:49.140Z,2.77
2019-03-24T11:54:47.251Z,2.30
2019-03-24T11:59:43.283Z,1.77
2019-03-24T12:04:39.205Z,2.23
2019-03-24T12:09:35.143Z,1.30
2019-03-24T12:14:31.055Z,1.87
2019-03-24T12:19:27.042Z,1.70
2019-03-24T12:24:25.086Z,1.13
2019-03-24T12:29:21.188Z,2.20
2019-03-24T12:34:17.280Z,2.10
2019-03-24T12:39:13.214Z,1.93
2019-03-24T12:44:09.135Z,1.97
2019-03-24T12:49:05.060Z,3.07
2019-03-24T12:54:01.141Z,2.00
2019-03-24T12:58:57.069Z,2.40
2019-03-24T13:03:52.996Z,1.83
2019-03-24T13:08:48.923Z,2.50
2019-03-24T13:13:44.839Z,1.50
2019-03-24T13:18:40.866Z,2.93
2019-03-24T13:23:36.789Z,3.60
2019-03-24T13:28:32.714Z,3.07
2019-03-24T13:33:28.661Z,3.00
2019-03-24T13:38:24.581Z,2.77
2019-03-24T13:43:20.492Z,2.57
2019-03-24T13:48:16.469Z,3.27
2019-03-24T13:53:12.988Z,3.70
2019-03-24T13:58:11.770Z,2.80
2019-03-24T14:03:07.054Z,3.57
2019-03-24T14:08:02.988Z,4.30
2019-03-24T14:12:58.907Z,2.40
2019-03-24T14:17:54.818Z,2.93
2019-03-24T14:22:50.900Z,2.60
2019-03-24T14:27:46.835Z,2.47
2019-03-24T14:32:42.778Z,2.03
2019-03-24T14:37:38.735Z,1.57
2019-03-24T14:42:34.769Z,1.80
2019-03-24T14:47:30.797Z,2.37
2019-03-24T14:52:27.780Z,1.63
2019-03-24T14:57:23.742Z,1.77
2019-03-24T15:02:19.774Z,1.63
2019-03-24T15:07:16.271Z,2.10
2019-03-24T15:12:12.306Z,1.57
2019-03-24T15:17:08.277Z,2.30
2019-03-24T15:22:04.384Z,1.73
2019-03-24T15:27:03.676Z,2.10
2019-03-24T15:31:59.442Z,1.87
2019-03-24T15:36:56.817Z,2.13
2019-03-24T15:41:52.744Z,1.90
2019-03-24T15:46:48.726Z,0.90
2019-03-24T15:51:44.660Z,0.73
2019-03-24T15:56:40.708Z,1.07
2019-03-24T16:01:36.648Z,1.40
2019-03-24T16:06:32.582Z,1.20
2019-03-24T16:11:28.629Z,1.73
2019-03-24T16:16:24.661Z,1.97
2019-03-24T16:21:27.735Z,1.73
2019-03-24T16:26:18.648Z,1.07
2019-03-24T16:31:14.625Z,2.10
2019-03-24T16:36:10.542Z,2.10
2019-03-24T16:41:06.496Z,1.33
2019-03-24T16:46:02.559Z,3.73
2019-03-24T16:50:58.593Z,2.70
2019-03-24T16:55:54.522Z,2.60
2019-03-24T17:00:50.440Z,4.23
2019-03-24T17:05:46.400Z,4.30
2019-03-24T17:10:42.334Z,5.40
2019-03-24T17:15:46.951Z,5.30
2019-03-24T17:20:43.034Z,2.13
2019-03-24T17:25:39.908Z,3.10
2019-03-24T17:30:41.707Z,2.83
2019-03-24T17:35:37.930Z,2.70
2019-03-24T17:40:38.760Z,2.67
2019-03-24T17:45:32.451Z,3.07
2019-03-24T17:50:28.398Z,3.20
2019-03-24T17:55:27.843Z,2.40
2019-03-24T18:00:41.462Z,2.83
2019-03-24T18:05:37.603Z,5.00
2019-03-24T18:10:33.532Z,5.50
2019-03-24T18:15:29.475Z,4.30
2019-03-24T18:20:30.298Z,2.93
2019-03-24T18:25:26.905Z,2.30
2019-03-24T18:30:24.196Z,3.57
2019-03-24T18:35:20.312Z,3.83
2019-03-24T18:40:19.009Z,2.60
2019-03-24T18:45:16.915Z,3.00
2019-03-24T18:50:13.144Z,3.43
2019-03-24T18:55:12.320Z,3.87
2019-03-24T19:00:11.471Z,2.87
2019-03-24T19:05:07.751Z,3.50
2019-03-24T19:10:05.971Z,3.47
2019-03-24T19:15:02.305Z,2.90
2019-03-24T19:19:58.285Z,3.67
2019-03-24T19:24:56.137Z,3.37
2019-03-24T19:29:52.061Z,3.30
2019-03-24T19:34:48.044Z,4.33
2019-03-24T19:39:43.963Z,3.23
2019-03-24T19:44:39.960Z,4.30
2019-03-24T19:49:35.962Z,2.60
2019-03-24T19:54:32.339Z,3.23
2019-03-24T19:59:28.296Z,3.43
2019-03-24T20:04:24.320Z,3.30
2019-03-24T20:09:20.259Z,4.00
2019-03-24T20:14:16.268Z,2.90
2019-03-24T20:19:12.322Z,2.40
2019-03-24T20:24:10.033Z,2.60
2019-03-24T20:29:06.129Z,2.23
2019-03-24T20:34:02.074Z,2.57
2019-03-24T20:38:58.003Z,2.77
2019-03-24T20:43:53.947Z,2.40
2019-03-24T20:48:49.901Z,2.53
2019-03-24T20:53:45.949Z,1.70
2019-03-24T20:58:42.006Z,2.37
2019-03-24T21:03:37.947Z,2.10
2019-03-24T21:08:33.950Z,2.70
2019-03-24T21:13:29.878Z,2.10
2019-03-24T21:18:25.791Z,2.20
2019-03-24T21:23:29.519Z,1.97
2019-03-24T21:28:19.644Z,2.57
2019-03-24T21:33:15.556Z,2.47
2019-03-24T21:38:11.509Z,2.47
2019-03-24T21:43:07.464Z,2.20
2019-03-24T21:48:03.892Z,2.40
2019-03-24T21:52:59.804Z,1.87
2019-03-24T21:57:57.723Z,2.90
2019-03-24T22:02:53.787Z,3.40
2019-03-24T22:07:49.712Z,1.90
2019-03-24T22:12:45.751Z,3.70
2019-03-24T22:17:41.668Z,3.03
2019-03-24T22:22:37.608Z,3.30
2019-03-24T22:27:33.584Z,3.70
2019-03-24T22:32:29.503Z,2.60
2019-03-24T22:37:25.419Z,3.20
2019-03-24T22:42:21.549Z,3.43
2019-03-24T22:47:17.468Z,3.23
2019-03-24T22:52:13.382Z,4.07
2019-03-24T22:57:09.404Z,3.70
2019-03-24T23:02:05.419Z,2.70
2019-03-24T23:07:01.393Z,3.37
2019-03-24T23:11:57.353Z,3.60
2019-03-24T23:16:53.389Z,2.90
2019-03-24T23:21:49.413Z,3.33
2019-03-24T23:26:45.356Z,4.23
2019-03-24T23:31:41.285Z,3.60
2019-03-24T23:36:37.207Z,3.23
2019-03-24T23:41:33.159Z,3.90
2019-03-24T23:46:29.075Z,4.07
2019-03-24T23:51:25.139Z,3.60
2019-03-24T23:56:21.773Z,4.30
